sensor_id;sensor_type;location;lat;lon;timestamp;P1;durP1;ratioP1;P2;durP2;ratioP2
20038;SDS011;21737;42.868;25.320;2023-01-24T00:02:14;33.30;;;14.23;;
20038;SDS011;21737;42.868;25.320;2023-01-24T00:05:16;32.90;;;14.27;;
20038;SDS011;21737;42.868;25.320;2023-01-24T00:08:18;29.80;;;13.27;;
20038;SDS011;21737;42.868;25.320;2023-01-24T00:11:21;33.30;;;15.57;;
20038;SDS011;21737;42.868;25.320;2023-01-24T00:14:23;37.33;;;15.43;;
20038;SDS011;21737;42.868;25.320;2023-01-24T00:17:24;36.00;;;15.00;;
20038;SDS011;21737;42.868;25.320;2023-01-24T00:20:26;32.83;;;14.87;;
20038;SDS011;21737;42.868;25.320;2023-01-24T00:23:27;34.07;;;13.60;;
20038;SDS011;21737;42.868;25.320;2023-01-24T00:26:29;35.57;;;14.67;;
20038;SDS011;21737;42.868;25.320;2023-01-24T00:29:31;38.73;;;15.13;;
20038;SDS011;21737;42.868;25.320;2023-01-24T00:32:32;35.73;;;15.17;;
20038;SDS011;21737;42.868;25.320;2023-01-24T00:35:34;36.23;;;15.40;;
20038;SDS011;21737;42.868;25.320;2023-01-24T00:38:36;44.07;;;15.17;;
20038;SDS011;21737;42.868;25.320;2023-01-24T00:41:37;34.00;;;13.33;;
20038;SDS011;21737;42.868;25.320;2023-01-24T00:44:39;39.73;;;15.40;;
20038;SDS011;21737;42.868;25.320;2023-01-24T00:47:41;38.23;;;15.50;;
20038;SDS011;21737;42.868;25.320;2023-01-24T00:50:42;40.63;;;15.53;;
20038;SDS011;21737;42.868;25.320;2023-01-24T00:53:44;37.80;;;16.00;;
20038;SDS011;21737;42.868;25.320;2023-01-24T00:56:46;34.33;;;15.60;;
20038;SDS011;21737;42.868;25.320;2023-01-24T00:59:47;40.13;;;16.73;;
20038;SDS011;21737;42.868;25.320;2023-01-24T01:02:49;34.13;;;15.87;;
20038;SDS011;21737;42.868;25.320;2023-01-24T01:06:02;42.53;;;16.27;;
20038;SDS011;21737;42.868;25.320;2023-01-24T01:09:04;36.03;;;13.93;;
20038;SDS011;21737;42.868;25.320;2023-01-24T01:12:05;32.77;;;14.80;;
20038;SDS011;21737;42.868;25.320;2023-01-24T01:15:07;40.97;;;16.00;;
20038;SDS011;21737;42.868;25.320;2023-01-24T01:18:09;41.60;;;16.57;;
20038;SDS011;21737;42.868;25.320;2023-01-24T01:21:15;42.57;;;17.07;;
20038;SDS011;21737;42.868;25.320;2023-01-24T01:24:16;50.93;;;18.30;;
20038;SDS011;21737;42.868;25.320;2023-01-24T01:27:20;51.97;;;17.07;;
20038;SDS011;21737;42.868;25.320;2023-01-24T01:30:22;48.17;;;17.07;;
20038;SDS011;21737;42.868;25.320;2023-01-24T01:33:24;55.20;;;18.37;;
20038;SDS011;21737;42.868;25.320;2023-01-24T01:36:26;66.63;;;18.40;;
20038;SDS011;21737;42.868;25.320;2023-01-24T01:39:28;66.60;;;18.10;;
20038;SDS011;21737;42.868;25.320;2023-01-24T01:45:51;52.07;;;18.13;;
20038;SDS011;21737;42.868;25.320;2023-01-24T01:48:55;49.97;;;16.47;;
20038;SDS011;21737;42.868;25.320;2023-01-24T01:51:59;51.77;;;17.33;;
20038;SDS011;21737;42.868;25.320;2023-01-24T01:55:05;58.67;;;18.07;;
20038;SDS011;21737;42.868;25.320;2023-01-24T01:58:08;61.53;;;17.33;;
20038;SDS011;21737;42.868;25.320;2023-01-24T02:01:09;50.60;;;17.07;;
20038;SDS011;21737;42.868;25.320;2023-01-24T02:04:13;54.57;;;17.47;;
20038;SDS011;21737;42.868;25.320;2023-01-24T02:10:17;47.67;;;18.37;;
20038;SDS011;21737;42.868;25.320;2023-01-24T02:13:20;42.47;;;17.00;;
20038;SDS011;21737;42.868;25.320;2023-01-24T02:16:22;42.93;;;16.57;;
20038;SDS011;21737;42.868;25.320;2023-01-24T02:25:46;53.07;;;19.10;;
20038;SDS011;21737;42.868;25.320;2023-01-24T02:28:56;55.80;;;18.23;;
20038;SDS011;21737;42.868;25.320;2023-01-24T02:32:00;45.17;;;16.33;;
20038;SDS011;21737;42.868;25.320;2023-01-24T02:35:03;48.73;;;17.00;;
20038;SDS011;21737;42.868;25.320;2023-01-24T02:38:06;50.67;;;17.10;;
20038;SDS011;21737;42.868;25.320;2023-01-24T02:41:08;53.00;;;16.03;;
20038;SDS011;21737;42.868;25.320;2023-01-24T02:44:12;40.70;;;15.53;;
20038;SDS011;21737;42.868;25.320;2023-01-24T02:47:14;42.47;;;15.00;;
20038;SDS011;21737;42.868;25.320;2023-01-24T02:50:17;46.50;;;16.00;;
20038;SDS011;21737;42.868;25.320;2023-01-24T02:53:20;40.00;;;14.90;;
20038;SDS011;21737;42.868;25.320;2023-01-24T02:56:31;41.63;;;14.67;;
20038;SDS011;21737;42.868;25.320;2023-01-24T02:59:51;36.13;;;15.03;;
20038;SDS011;21737;42.868;25.320;2023-01-24T03:02:52;33.77;;;13.60;;
20038;SDS011;21737;42.868;25.320;2023-01-24T03:05:55;30.43;;;12.93;;
20038;SDS011;21737;42.868;25.320;2023-01-24T03:09:06;31.93;;;13.10;;
20038;SDS011;21737;42.868;25.320;2023-01-24T03:12:22;31.47;;;12.00;;
20038;SDS011;21737;42.868;25.320;2023-01-24T03:15:44;31.43;;;12.37;;
20038;SDS011;21737;42.868;25.320;2023-01-24T03:19:04;21.53;;;10.80;;
20038;SDS011;21737;42.868;25.320;2023-01-24T03:22:24;26.00;;;11.07;;
20038;SDS011;21737;42.868;25.320;2023-01-24T03:25:45;24.93;;;11.07;;
20038;SDS011;21737;42.868;25.320;2023-01-24T03:29:06;24.87;;;10.47;;
20038;SDS011;21737;42.868;25.320;2023-01-24T03:32:26;23.57;;;10.30;;
20038;SDS011;21737;42.868;25.320;2023-01-24T03:35:48;23.60;;;11.20;;
20038;SDS011;21737;42.868;25.320;2023-01-24T03:38:57;24.00;;;10.70;;
20038;SDS011;21737;42.868;25.320;2023-01-24T03:42:18;24.63;;;11.67;;
20038;SDS011;21737;42.868;25.320;2023-01-24T03:45:22;23.23;;;11.37;;
20038;SDS011;21737;42.868;25.320;2023-01-24T03:48:25;24.80;;;11.27;;
20038;SDS011;21737;42.868;25.320;2023-01-24T03:51:36;20.57;;;9.87;;
20038;SDS011;21737;42.868;25.320;2023-01-24T03:54:57;23.60;;;10.80;;
20038;SDS011;21737;42.868;25.320;2023-01-24T03:57:59;20.43;;;9.40;;
20038;SDS011;21737;42.868;25.320;2023-01-24T04:01:01;25.50;;;9.93;;
20038;SDS011;21737;42.868;25.320;2023-01-24T04:04:22;23.83;;;10.23;;
20038;SDS011;21737;42.868;25.320;2023-01-24T04:07:24;22.80;;;10.37;;
20038;SDS011;21737;42.868;25.320;2023-01-24T04:10:34;20.47;;;10.00;;
20038;SDS011;21737;42.868;25.320;2023-01-24T04:13:36;25.70;;;10.67;;
20038;SDS011;21737;42.868;25.320;2023-01-24T04:16:38;21.90;;;10.63;;
20038;SDS011;21737;42.868;25.320;2023-01-24T04:19:55;23.90;;;11.87;;
20038;SDS011;21737;42.868;25.320;2023-01-24T04:23:02;19.00;;;10.03;;
20038;SDS011;21737;42.868;25.320;2023-01-24T04:26:04;19.97;;;10.37;;
20038;SDS011;21737;42.868;25.320;2023-01-24T04:29:07;21.80;;;10.03;;
20038;SDS011;21737;42.868;25.320;2023-01-24T04:32:10;22.93;;;10.50;;
20038;SDS011;21737;42.868;25.320;2023-01-24T04:35:33;22.33;;;10.30;;
20038;SDS011;21737;42.868;25.320;2023-01-24T04:38:36;20.97;;;10.23;;
20038;SDS011;21737;42.868;25.320;2023-01-24T04:41:43;20.67;;;10.10;;
20038;SDS011;21737;42.868;25.320;2023-01-24T04:44:44;22.43;;;10.37;;
20038;SDS011;21737;42.868;25.320;2023-01-24T04:47:46;25.40;;;11.30;;
20038;SDS011;21737;42.868;25.320;2023-01-24T04:50:48;32.60;;;14.47;;
20038;SDS011;21737;42.868;25.320;2023-01-24T04:53:51;19.33;;;9.23;;
20038;SDS011;21737;42.868;25.320;2023-01-24T04:56:58;21.60;;;9.93;;
20038;SDS011;21737;42.868;25.320;2023-01-24T04:59:59;15.73;;;7.83;;
20038;SDS011;21737;42.868;25.320;2023-01-24T05:03:03;20.67;;;10.37;;
20038;SDS011;21737;42.868;25.320;2023-01-24T05:06:05;18.03;;;9.07;;
20038;SDS011;21737;42.868;25.320;2023-01-24T05:09:08;18.80;;;8.87;;
20038;SDS011;21737;42.868;25.320;2023-01-24T05:12:23;25.33;;;11.73;;
20038;SDS011;21737;42.868;25.320;2023-01-24T05:15:25;22.80;;;11.03;;
20038;SDS011;21737;42.868;25.320;2023-01-24T05:18:28;31.50;;;15.10;;
20038;SDS011;21737;42.868;25.320;2023-01-24T05:21:30;38.73;;;18.10;;
20038;SDS011;21737;42.868;25.320;2023-01-24T05:24:32;23.60;;;11.27;;
20038;SDS011;21737;42.868;25.320;2023-01-24T05:27:34;21.90;;;11.17;;
20038;SDS011;21737;42.868;25.320;2023-01-24T05:30:38;19.73;;;9.30;;
20038;SDS011;21737;42.868;25.320;2023-01-24T05:33:52;27.87;;;12.07;;
20038;SDS011;21737;42.868;25.320;2023-01-24T05:36:54;23.17;;;11.30;;
20038;SDS011;21737;42.868;25.320;2023-01-24T05:39:56;37.60;;;17.10;;
20038;SDS011;21737;42.868;25.320;2023-01-24T05:42:58;27.83;;;13.70;;
20038;SDS011;21737;42.868;25.320;2023-01-24T05:46:03;23.53;;;11.93;;
20038;SDS011;21737;42.868;25.320;2023-01-24T05:49:10;23.93;;;12.77;;
20038;SDS011;21737;42.868;25.320;2023-01-24T05:52:12;28.93;;;14.63;;
20038;SDS011;21737;42.868;25.320;2023-01-24T05:55:22;25.77;;;12.13;;
20038;SDS011;21737;42.868;25.320;2023-01-24T05:58:26;28.63;;;13.03;;
20038;SDS011;21737;42.868;25.320;2023-01-24T06:01:38;30.07;;;12.93;;
20038;SDS011;21737;42.868;25.320;2023-01-24T06:04:40;26.53;;;12.87;;
20038;SDS011;21737;42.868;25.320;2023-01-24T06:07:41;61.50;;;23.40;;
20038;SDS011;21737;42.868;25.320;2023-01-24T06:10:43;33.03;;;14.73;;
20038;SDS011;21737;42.868;25.320;2023-01-24T06:13:46;26.47;;;12.00;;
20038;SDS011;21737;42.868;25.320;2023-01-24T06:16:49;30.63;;;14.70;;
20038;SDS011;21737;42.868;25.320;2023-01-24T06:19:52;38.20;;;15.33;;
20038;SDS011;21737;42.868;25.320;2023-01-24T06:23:17;35.67;;;15.53;;
20038;SDS011;21737;42.868;25.320;2023-01-24T06:26:19;30.97;;;13.07;;
20038;SDS011;21737;42.868;25.320;2023-01-24T06:29:21;33.93;;;16.03;;
20038;SDS011;21737;42.868;25.320;2023-01-24T06:35:26;25.07;;;11.43;;
20038;SDS011;21737;42.868;25.320;2023-01-24T06:38:32;24.80;;;13.23;;
20038;SDS011;21737;42.868;25.320;2023-01-24T06:41:34;23.90;;;11.93;;
20038;SDS011;21737;42.868;25.320;2023-01-24T06:44:35;27.13;;;12.60;;
20038;SDS011;21737;42.868;25.320;2023-01-24T06:47:37;21.47;;;10.40;;
20038;SDS011;21737;42.868;25.320;2023-01-24T06:50:39;49.10;;;15.60;;
20038;SDS011;21737;42.868;25.320;2023-01-24T06:53:41;28.60;;;13.10;;
20038;SDS011;21737;42.868;25.320;2023-01-24T06:56:43;29.10;;;13.20;;
20038;SDS011;21737;42.868;25.320;2023-01-24T06:59:44;28.83;;;12.87;;
20038;SDS011;21737;42.868;25.320;2023-01-24T07:02:46;30.80;;;15.43;;
20038;SDS011;21737;42.868;25.320;2023-01-24T07:05:48;26.47;;;12.07;;
20038;SDS011;21737;42.868;25.320;2023-01-24T07:08:50;27.13;;;12.63;;
20038;SDS011;21737;42.868;25.320;2023-01-24T07:11:53;32.73;;;14.70;;
20038;SDS011;21737;42.868;25.320;2023-01-24T07:14:56;35.47;;;15.70;;
20038;SDS011;21737;42.868;25.320;2023-01-24T07:18:03;30.03;;;13.63;;
20038;SDS011;21737;42.868;25.320;2023-01-24T07:21:08;33.97;;;14.47;;
20038;SDS011;21737;42.868;25.320;2023-01-24T07:24:12;27.60;;;13.37;;
20038;SDS011;21737;42.868;25.320;2023-01-24T07:27:14;32.93;;;14.73;;
20038;SDS011;21737;42.868;25.320;2023-01-24T07:30:16;42.37;;;16.07;;
20038;SDS011;21737;42.868;25.320;2023-01-24T07:33:18;25.77;;;12.60;;
20038;SDS011;21737;42.868;25.320;2023-01-24T07:36:19;32.80;;;15.17;;
20038;SDS011;21737;42.868;25.320;2023-01-24T07:39:21;40.33;;;16.17;;
20038;SDS011;21737;42.868;25.320;2023-01-24T07:42:22;30.27;;;12.60;;
20038;SDS011;21737;42.868;25.320;2023-01-24T07:45:24;28.97;;;14.37;;
20038;SDS011;21737;42.868;25.320;2023-01-24T07:48:26;75.13;;;27.27;;
20038;SDS011;21737;42.868;25.320;2023-01-24T07:51:28;29.47;;;14.33;;
20038;SDS011;21737;42.868;25.320;2023-01-24T07:54:30;21.23;;;10.23;;
20038;SDS011;21737;42.868;25.320;2023-01-24T07:57:31;21.50;;;10.47;;
20038;SDS011;21737;42.868;25.320;2023-01-24T08:00:33;20.43;;;10.50;;
20038;SDS011;21737;42.868;25.320;2023-01-24T08:03:35;64.93;;;27.97;;
20038;SDS011;21737;42.868;25.320;2023-01-24T08:06:38;67.73;;;29.60;;
20038;SDS011;21737;42.868;25.320;2023-01-24T08:09:39;92.73;;;36.73;;
20038;SDS011;21737;42.868;25.320;2023-01-24T08:12:41;88.77;;;38.30;;
20038;SDS011;21737;42.868;25.320;2023-01-24T08:15:43;66.57;;;31.57;;
20038;SDS011;21737;42.868;25.320;2023-01-24T08:18:44;33.97;;;18.20;;
20038;SDS011;21737;42.868;25.320;2023-01-24T08:21:46;25.27;;;12.23;;
20038;SDS011;21737;42.868;25.320;2023-01-24T08:24:48;48.60;;;23.80;;
20038;SDS011;21737;42.868;25.320;2023-01-24T08:27:49;54.33;;;24.60;;
20038;SDS011;21737;42.868;25.320;2023-01-24T08:30:51;67.17;;;32.03;;
20038;SDS011;21737;42.868;25.320;2023-01-24T08:33:53;43.73;;;23.00;;
20038;SDS011;21737;42.868;25.320;2023-01-24T08:36:54;33.80;;;18.00;;
20038;SDS011;21737;42.868;25.320;2023-01-24T08:39:59;22.77;;;12.30;;
20038;SDS011;21737;42.868;25.320;2023-01-24T08:43:00;25.60;;;12.43;;
20038;SDS011;21737;42.868;25.320;2023-01-24T08:46:02;22.67;;;11.70;;
20038;SDS011;21737;42.868;25.320;2023-01-24T08:49:04;31.00;;;12.67;;
20038;SDS011;21737;42.868;25.320;2023-01-24T08:52:06;28.87;;;13.23;;
20038;SDS011;21737;42.868;25.320;2023-01-24T08:55:08;35.17;;;15.57;;
20038;SDS011;21737;42.868;25.320;2023-01-24T08:58:10;51.53;;;22.87;;
20038;SDS011;21737;42.868;25.320;2023-01-24T09:01:11;25.30;;;11.93;;
20038;SDS011;21737;42.868;25.320;2023-01-24T09:04:13;43.10;;;18.40;;
20038;SDS011;21737;42.868;25.320;2023-01-24T09:07:15;68.00;;;24.23;;
20038;SDS011;21737;42.868;25.320;2023-01-24T09:10:16;43.03;;;16.50;;
20038;SDS011;21737;42.868;25.320;2023-01-24T09:13:18;40.73;;;14.93;;
20038;SDS011;21737;42.868;25.320;2023-01-24T09:16:20;56.63;;;21.87;;
20038;SDS011;21737;42.868;25.320;2023-01-24T09:19:22;24.37;;;9.77;;
20038;SDS011;21737;42.868;25.320;2023-01-24T09:22:26;18.93;;;8.83;;
20038;SDS011;21737;42.868;25.320;2023-01-24T09:25:28;22.33;;;11.40;;
20038;SDS011;21737;42.868;25.320;2023-01-24T09:28:31;18.77;;;10.30;;
20038;SDS011;21737;42.868;25.320;2023-01-24T09:31:35;30.90;;;15.30;;
20038;SDS011;21737;42.868;25.320;2023-01-24T09:34:36;76.57;;;28.67;;
20038;SDS011;21737;42.868;25.320;2023-01-24T09:37:38;109.23;;;36.73;;
20038;SDS011;21737;42.868;25.320;2023-01-24T09:40:45;67.23;;;24.43;;
20038;SDS011;21737;42.868;25.320;2023-01-24T09:44:02;45.90;;;21.17;;
20038;SDS011;21737;42.868;25.320;2023-01-24T09:47:15;26.97;;;13.20;;
20038;SDS011;21737;42.868;25.320;2023-01-24T09:50:19;31.77;;;15.97;;
20038;SDS011;21737;42.868;25.320;2023-01-24T09:56:33;35.80;;;16.87;;
20038;SDS011;21737;42.868;25.320;2023-01-24T09:59:37;21.23;;;11.50;;
20038;SDS011;21737;42.868;25.320;2023-01-24T10:02:40;28.63;;;13.23;;
20038;SDS011;21737;42.868;25.320;2023-01-24T10:05:46;64.80;;;27.50;;
20038;SDS011;21737;42.868;25.320;2023-01-24T10:15:09;51.83;;;18.50;;
20038;SDS011;21737;42.868;25.320;2023-01-24T10:24:21;41.93;;;17.93;;
20038;SDS011;21737;42.868;25.320;2023-01-24T10:27:35;30.13;;;13.30;;
20038;SDS011;21737;42.868;25.320;2023-01-24T10:30:47;42.73;;;15.50;;
20038;SDS011;21737;42.868;25.320;2023-01-24T10:33:51;44.83;;;15.93;;
20038;SDS011;21737;42.868;25.320;2023-01-24T10:36:57;36.20;;;14.43;;
20038;SDS011;21737;42.868;25.320;2023-01-24T10:40:00;35.13;;;12.97;;
20038;SDS011;21737;42.868;25.320;2023-01-24T10:43:05;23.83;;;11.30;;
20038;SDS011;21737;42.868;25.320;2023-01-24T10:46:13;103.37;;;42.37;;
20038;SDS011;21737;42.868;25.320;2023-01-24T10:49:20;68.57;;;27.43;;
20038;SDS011;21737;42.868;25.320;2023-01-24T10:52:25;80.63;;;27.07;;
20038;SDS011;21737;42.868;25.320;2023-01-24T10:55:36;77.13;;;32.10;;
20038;SDS011;21737;42.868;25.320;2023-01-24T10:59:03;64.63;;;26.17;;
20038;SDS011;21737;42.868;25.320;2023-01-24T11:02:02;89.20;;;42.53;;
20038;SDS011;21737;42.868;25.320;2023-01-24T11:05:04;34.57;;;15.97;;
20038;SDS011;21737;42.868;25.320;2023-01-24T11:08:09;34.43;;;18.97;;
20038;SDS011;21737;42.868;25.320;2023-01-24T11:11:21;31.17;;;14.73;;
20038;SDS011;21737;42.868;25.320;2023-01-24T11:14:25;24.80;;;12.87;;
20038;SDS011;21737;42.868;25.320;2023-01-24T11:17:31;28.47;;;11.60;;
20038;SDS011;21737;42.868;25.320;2023-01-24T11:20:35;17.57;;;9.67;;
20038;SDS011;21737;42.868;25.320;2023-01-24T11:23:37;15.03;;;8.80;;
20038;SDS011;21737;42.868;25.320;2023-01-24T11:26:50;20.00;;;10.53;;
20038;SDS011;21737;42.868;25.320;2023-01-24T11:30:07;15.17;;;8.80;;
20038;SDS011;21737;42.868;25.320;2023-01-24T11:55:34;16.93;;;9.33;;
20038;SDS011;21737;42.868;25.320;2023-01-24T12:01:49;17.17;;;9.87;;
20038;SDS011;21737;42.868;25.320;2023-01-24T12:11:14;25.30;;;13.73;;
20038;SDS011;21737;42.868;25.320;2023-01-24T12:18:30;23.73;;;13.33;;
20038;SDS011;21737;42.868;25.320;2023-01-24T12:21:23;21.30;;;12.77;;
20038;SDS011;21737;42.868;25.320;2023-01-24T12:24:31;23.57;;;12.43;;
20038;SDS011;21737;42.868;25.320;2023-01-24T12:27:35;25.73;;;13.97;;
20038;SDS011;21737;42.868;25.320;2023-01-24T12:30:39;27.87;;;14.90;;
20038;SDS011;21737;42.868;25.320;2023-01-24T12:33:52;23.93;;;13.27;;
20038;SDS011;21737;42.868;25.320;2023-01-24T12:46:58;23.40;;;13.50;;
20038;SDS011;21737;42.868;25.320;2023-01-24T12:50:37;29.13;;;12.17;;
20038;SDS011;21737;42.868;25.320;2023-01-24T12:56:22;25.93;;;15.47;;
20038;SDS011;21737;42.868;25.320;2023-01-24T12:59:24;21.93;;;12.83;;
20038;SDS011;21737;42.868;25.320;2023-01-24T13:05:48;22.80;;;12.27;;
20038;SDS011;21737;42.868;25.320;2023-01-24T13:12:00;25.30;;;13.37;;
20038;SDS011;21737;42.868;25.320;2023-01-24T13:15:04;37.47;;;18.43;;
20038;SDS011;21737;42.868;25.320;2023-01-24T13:18:11;34.53;;;17.57;;
20038;SDS011;21737;42.868;25.320;2023-01-24T13:21:29;26.97;;;13.97;;
20038;SDS011;21737;42.868;25.320;2023-01-24T13:27:54;25.93;;;13.40;;
20038;SDS011;21737;42.868;25.320;2023-01-24T13:34:01;33.23;;;15.97;;
20038;SDS011;21737;42.868;25.320;2023-01-24T13:37:05;29.90;;;16.57;;
20038;SDS011;21737;42.868;25.320;2023-01-24T13:52:54;33.70;;;17.30;;
20038;SDS011;21737;42.868;25.320;2023-01-24T13:56:00;28.13;;;14.23;;
20038;SDS011;21737;42.868;25.320;2023-01-24T13:59:02;27.87;;;13.00;;
20038;SDS011;21737;42.868;25.320;2023-01-24T14:02:27;31.17;;;15.63;;
20038;SDS011;21737;42.868;25.320;2023-01-24T14:08:32;27.17;;;12.43;;
20038;SDS011;21737;42.868;25.320;2023-01-24T14:11:35;28.57;;;14.60;;
20038;SDS011;21737;42.868;25.320;2023-01-24T14:14:57;25.30;;;12.77;;
20038;SDS011;21737;42.868;25.320;2023-01-24T14:17:59;25.40;;;12.23;;
20038;SDS011;21737;42.868;25.320;2023-01-24T14:21:01;29.80;;;15.33;;
20038;SDS011;21737;42.868;25.320;2023-01-24T14:24:16;29.33;;;15.47;;
20038;SDS011;21737;42.868;25.320;2023-01-24T14:30:30;26.17;;;12.80;;
20038;SDS011;21737;42.868;25.320;2023-01-24T14:33:40;33.20;;;17.07;;
20038;SDS011;21737;42.868;25.320;2023-01-24T14:36:43;36.60;;;16.93;;
20038;SDS011;21737;42.868;25.320;2023-01-24T14:39:46;42.90;;;19.83;;
20038;SDS011;21737;42.868;25.320;2023-01-24T14:42:49;32.73;;;14.93;;
20038;SDS011;21737;42.868;25.320;2023-01-24T14:45:52;39.47;;;20.03;;
20038;SDS011;21737;42.868;25.320;2023-01-24T14:48:53;38.57;;;16.37;;
20038;SDS011;21737;42.868;25.320;2023-01-24T14:51:55;38.53;;;17.73;;
20038;SDS011;21737;42.868;25.320;2023-01-24T14:55:29;34.77;;;17.50;;
20038;SDS011;21737;42.868;25.320;2023-01-24T14:58:33;30.43;;;14.97;;
20038;SDS011;21737;42.868;25.320;2023-01-24T15:01:34;27.33;;;13.97;;
20038;SDS011;21737;42.868;25.320;2023-01-24T15:04:36;32.30;;;14.87;;
20038;SDS011;21737;42.868;25.320;2023-01-24T15:07:44;28.07;;;13.97;;
20038;SDS011;21737;42.868;25.320;2023-01-24T15:10:45;31.43;;;13.40;;
20038;SDS011;21737;42.868;25.320;2023-01-24T15:13:58;26.83;;;13.77;;
20038;SDS011;21737;42.868;25.320;2023-01-24T15:17:01;28.27;;;13.90;;
20038;SDS011;21737;42.868;25.320;2023-01-24T15:20:07;38.90;;;18.03;;
20038;SDS011;21737;42.868;25.320;2023-01-24T15:23:13;33.63;;;16.40;;
20038;SDS011;21737;42.868;25.320;2023-01-24T15:26:22;34.77;;;17.37;;
20038;SDS011;21737;42.868;25.320;2023-01-24T15:32:39;48.50;;;25.10;;
20038;SDS011;21737;42.868;25.320;2023-01-24T15:35:45;49.33;;;24.70;;
20038;SDS011;21737;42.868;25.320;2023-01-24T15:38:47;39.37;;;19.50;;
20038;SDS011;21737;42.868;25.320;2023-01-24T15:41:54;58.77;;;26.63;;
20038;SDS011;21737;42.868;25.320;2023-01-24T15:45:15;143.43;;;54.03;;
20038;SDS011;21737;42.868;25.320;2023-01-24T15:48:22;72.63;;;32.27;;
20038;SDS011;21737;42.868;25.320;2023-01-24T15:51:27;46.93;;;22.63;;
20038;SDS011;21737;42.868;25.320;2023-01-24T15:54:29;39.37;;;19.97;;
20038;SDS011;21737;42.868;25.320;2023-01-24T15:57:32;32.33;;;17.00;;
20038;SDS011;21737;42.868;25.320;2023-01-24T16:00:34;41.83;;;20.63;;
20038;SDS011;21737;42.868;25.320;2023-01-24T16:03:37;48.17;;;22.47;;
20038;SDS011;21737;42.868;25.320;2023-01-24T16:06:39;117.03;;;43.40;;
20038;SDS011;21737;42.868;25.320;2023-01-24T16:09:40;65.37;;;24.60;;
20038;SDS011;21737;42.868;25.320;2023-01-24T16:12:43;60.43;;;21.77;;
20038;SDS011;21737;42.868;25.320;2023-01-24T16:15:46;53.83;;;24.70;;
20038;SDS011;21737;42.868;25.320;2023-01-24T16:18:48;57.23;;;21.27;;
20038;SDS011;21737;42.868;25.320;2023-01-24T16:21:49;52.20;;;19.67;;
20038;SDS011;21737;42.868;25.320;2023-01-24T16:24:51;67.20;;;26.10;;
20038;SDS011;21737;42.868;25.320;2023-01-24T16:27:53;55.37;;;23.53;;
20038;SDS011;21737;42.868;25.320;2023-01-24T16:31:00;50.43;;;22.93;;
20038;SDS011;21737;42.868;25.320;2023-01-24T16:34:02;47.13;;;20.03;;
20038;SDS011;21737;42.868;25.320;2023-01-24T16:37:04;69.30;;;31.30;;
20038;SDS011;21737;42.868;25.320;2023-01-24T16:40:08;50.90;;;21.13;;
20038;SDS011;21737;42.868;25.320;2023-01-24T16:43:20;69.00;;;28.47;;
20038;SDS011;21737;42.868;25.320;2023-01-24T16:46:22;56.20;;;24.23;;
20038;SDS011;21737;42.868;25.320;2023-01-24T16:49:24;63.23;;;25.30;;
20038;SDS011;21737;42.868;25.320;2023-01-24T16:52:26;52.70;;;19.93;;
20038;SDS011;21737;42.868;25.320;2023-01-24T16:55:27;50.83;;;17.93;;
20038;SDS011;21737;42.868;25.320;2023-01-24T16:58:31;40.87;;;15.70;;
20038;SDS011;21737;42.868;25.320;2023-01-24T17:01:32;48.33;;;17.73;;
20038;SDS011;21737;42.868;25.320;2023-01-24T17:04:34;41.80;;;16.63;;
20038;SDS011;21737;42.868;25.320;2023-01-24T17:07:36;48.33;;;19.43;;
20038;SDS011;21737;42.868;25.320;2023-01-24T17:10:38;68.73;;;25.90;;
20038;SDS011;21737;42.868;25.320;2023-01-24T17:13:40;47.13;;;16.77;;
20038;SDS011;21737;42.868;25.320;2023-01-24T17:16:42;52.73;;;20.33;;
20038;SDS011;21737;42.868;25.320;2023-01-24T17:19:43;54.67;;;21.80;;
20038;SDS011;21737;42.868;25.320;2023-01-24T17:22:45;50.67;;;20.80;;
20038;SDS011;21737;42.868;25.320;2023-01-24T17:25:47;51.87;;;21.43;;
20038;SDS011;21737;42.868;25.320;2023-01-24T17:28:48;56.30;;;21.43;;
20038;SDS011;21737;42.868;25.320;2023-01-24T17:31:51;45.17;;;19.60;;
20038;SDS011;21737;42.868;25.320;2023-01-24T17:34:55;45.23;;;19.30;;
20038;SDS011;21737;42.868;25.320;2023-01-24T17:37:57;46.90;;;21.13;;
20038;SDS011;21737;42.868;25.320;2023-01-24T17:40:59;57.43;;;23.00;;
20038;SDS011;21737;42.868;25.320;2023-01-24T17:44:01;50.57;;;22.57;;
20038;SDS011;21737;42.868;25.320;2023-01-24T17:47:02;56.30;;;25.73;;
20038;SDS011;21737;42.868;25.320;2023-01-24T17:50:04;71.67;;;33.00;;
20038;SDS011;21737;42.868;25.320;2023-01-24T17:53:06;50.80;;;22.03;;
20038;SDS011;21737;42.868;25.320;2023-01-24T17:56:09;67.93;;;28.87;;
20038;SDS011;21737;42.868;25.320;2023-01-24T17:59:12;71.87;;;28.33;;
20038;SDS011;21737;42.868;25.320;2023-01-24T18:02:13;66.27;;;25.50;;
20038;SDS011;21737;42.868;25.320;2023-01-24T18:05:15;44.77;;;20.23;;
20038;SDS011;21737;42.868;25.320;2023-01-24T18:08:17;42.87;;;20.23;;
20038;SDS011;21737;42.868;25.320;2023-01-24T18:11:19;41.17;;;19.27;;
20038;SDS011;21737;42.868;25.320;2023-01-24T18:14:24;49.13;;;24.13;;
20038;SDS011;21737;42.868;25.320;2023-01-24T18:17:26;32.97;;;15.37;;
20038;SDS011;21737;42.868;25.320;2023-01-24T18:20:27;37.67;;;17.03;;
20038;SDS011;21737;42.868;25.320;2023-01-24T18:23:29;36.10;;;18.07;;
20038;SDS011;21737;42.868;25.320;2023-01-24T18:26:31;35.73;;;13.93;;
20038;SDS011;21737;42.868;25.320;2023-01-24T18:29:33;39.07;;;16.50;;
20038;SDS011;21737;42.868;25.320;2023-01-24T18:32:34;40.83;;;20.90;;
20038;SDS011;21737;42.868;25.320;2023-01-24T18:35:39;37.70;;;19.70;;
20038;SDS011;21737;42.868;25.320;2023-01-24T18:38:40;43.23;;;20.97;;
20038;SDS011;21737;42.868;25.320;2023-01-24T18:41:42;38.20;;;19.27;;
20038;SDS011;21737;42.868;25.320;2023-01-24T18:44:44;48.43;;;22.90;;
20038;SDS011;21737;42.868;25.320;2023-01-24T18:47:45;36.33;;;14.10;;
20038;SDS011;21737;42.868;25.320;2023-01-24T18:50:47;40.00;;;19.73;;
20038;SDS011;21737;42.868;25.320;2023-01-24T18:53:50;40.90;;;17.73;;
20038;SDS011;21737;42.868;25.320;2023-01-24T18:56:53;46.53;;;18.97;;
20038;SDS011;21737;42.868;25.320;2023-01-24T18:59:54;38.47;;;16.47;;
20038;SDS011;21737;42.868;25.320;2023-01-24T19:02:56;47.50;;;20.10;;
20038;SDS011;21737;42.868;25.320;2023-01-24T19:05:58;46.83;;;19.53;;
20038;SDS011;21737;42.868;25.320;2023-01-24T19:09:00;52.17;;;23.60;;
20038;SDS011;21737;42.868;25.320;2023-01-24T19:12:04;43.13;;;18.93;;
20038;SDS011;21737;42.868;25.320;2023-01-24T19:15:06;43.77;;;19.83;;
20038;SDS011;21737;42.868;25.320;2023-01-24T19:18:08;40.77;;;18.67;;
20038;SDS011;21737;42.868;25.320;2023-01-24T19:21:10;35.37;;;16.57;;
20038;SDS011;21737;42.868;25.320;2023-01-24T19:24:12;37.27;;;16.20;;
20038;SDS011;21737;42.868;25.320;2023-01-24T19:27:14;35.30;;;16.40;;
20038;SDS011;21737;42.868;25.320;2023-01-24T19:30:17;33.93;;;15.03;;
20038;SDS011;21737;42.868;25.320;2023-01-24T19:33:19;37.73;;;17.37;;
20038;SDS011;21737;42.868;25.320;2023-01-24T19:36:21;31.03;;;15.57;;
20038;SDS011;21737;42.868;25.320;2023-01-24T19:39:24;35.37;;;17.60;;